sensor_id;sensor_type;location;lat;lon;timestamp;pressure;altitude;pressure_sealevel;temperature;humidity
9249;BME280;4660;41.768;26.198;2022-09-09T00:03:40;101112.72;;;19.02;100.00
9249;BME280;4660;41.768;26.198;2022-09-09T00:06:50;101119.66;;;19.19;100.00
9249;BME280;4660;41.768;26.198;2022-09-09T00:09:19;101092.88;;;19.22;100.00
9249;BME280;4660;41.768;26.198;2022-09-09T00:17:01;101108.19;;;19.68;100.00
9249;BME280;4660;41.768;26.198;2022-09-09T00:19:49;101093.03;;;19.65;100.00
9249;BME280;4660;41.768;26.198;2022-09-09T00:22:18;101110.47;;;19.86;100.00
9249;BME280;4660;41.768;26.198;2022-09-09T00:24:54;101084.56;;;19.60;100.00
9249;BME280;4660;41.768;26.198;2022-09-09T00:30:12;101104.50;;;19.75;100.00
9249;BME280;4660;41.768;26.198;2022-09-09T00:32:37;101099.69;;;19.77;100.00
9249;BME280;4660;41.768;26.198;2022-09-09T00:35:30;101099.56;;;19.86;100.00
9249;BME280;4660;41.768;26.198;2022-09-09T00:38:04;101092.41;;;19.85;100.00
9249;BME280;4660;41.768;26.198;2022-09-09T00:40:41;101095.63;;;19.88;100.00
9249;BME280;4660;41.768;26.198;2022-09-09T00:43:28;101104.97;;;19.79;100.00
9249;BME280;4660;41.768;26.198;2022-09-09T00:51:59;101103.69;;;19.45;100.00
9249;BME280;4660;41.768;26.198;2022-09-09T00:54:31;101110.63;;;19.63;100.00
9249;BME280;4660;41.768;26.198;2022-09-09T00:57:18;101114.22;;;19.63;100.00
9249;BME280;4660;41.768;26.198;2022-09-09T00:59:52;101110.53;;;19.71;100.00
9249;BME280;4660;41.768;26.198;2022-09-09T01:02:28;101111.97;;;19.67;100.00
9249;BME280;4660;41.768;26.198;2022-09-09T01:05:07;101121.72;;;19.76;100.00
9249;BME280;4660;41.768;26.198;2022-09-09T01:07:37;101126.09;;;19.92;100.00
9249;BME280;4660;41.768;26.198;2022-09-09T01:10:07;101126.03;;;19.85;100.00
9249;BME280;4660;41.768;26.198;2022-09-09T01:12:42;101129.28;;;19.59;100.00
9249;BME280;4660;41.768;26.198;2022-09-09T01:15:10;101130.13;;;19.60;100.00
9249;BME280;4660;41.768;26.198;2022-09-09T01:18:03;101122.09;;;19.29;100.00
9249;BME280;4660;41.768;26.198;2022-09-09T01:26:26;101127.25;;;18.79;100.00
9249;BME280;4660;41.768;26.198;2022-09-09T01:28:52;101131.50;;;18.82;100.00
9249;BME280;4660;41.768;26.198;2022-09-09T01:31:42;101127.56;;;18.99;100.00
9249;BME280;4660;41.768;26.198;2022-09-09T01:34:16;101118.34;;;19.00;100.00
9249;BME280;4660;41.768;26.198;2022-09-09T01:37:12;101112.75;;;18.79;100.00
9249;BME280;4660;41.768;26.198;2022-09-09T01:39:39;101125.19;;;18.81;100.00
9249;BME280;4660;41.768;26.198;2022-09-09T01:42:08;101132.53;;;18.58;100.00
9249;BME280;4660;41.768;26.198;2022-09-09T01:44:35;101113.28;;;18.36;100.00
9249;BME280;4660;41.768;26.198;2022-09-09T01:47:02;101128.28;;;18.32;100.00
9249;BME280;4660;41.768;26.198;2022-09-09T01:49:28;101137.19;;;18.26;100.00
9249;BME280;4660;41.768;26.198;2022-09-09T01:51:55;101133.75;;;18.32;100.00
9249;BME280;4660;41.768;26.198;2022-09-09T01:54:24;101131.63;;;18.42;100.00
9249;BME280;4660;41.768;26.198;2022-09-09T01:57:08;101124.91;;;18.53;100.00
9249;BME280;4660;41.768;26.198;2022-09-09T02:02:18;101131.13;;;18.62;100.00
9249;BME280;4660;41.768;26.198;2022-09-09T02:04:54;101129.69;;;18.74;100.00
9249;BME280;4660;41.768;26.198;2022-09-09T02:13:12;101125.00;;;18.60;100.00
9249;BME280;4660;41.768;26.198;2022-09-09T02:18:10;101118.53;;;18.61;100.00
9249;BME280;4660;41.768;26.198;2022-09-09T02:20:38;101104.25;;;18.59;100.00
9249;BME280;4660;41.768;26.198;2022-09-09T02:23:05;101059.69;;;18.52;100.00
9249;BME280;4660;41.768;26.198;2022-09-09T02:25:34;101107.53;;;19.21;100.00
9249;BME280;4660;41.768;26.198;2022-09-09T02:28:03;101113.19;;;19.20;100.00
9249;BME280;4660;41.768;26.198;2022-09-09T02:30:32;101113.81;;;18.92;100.00
9249;BME280;4660;41.768;26.198;2022-09-09T02:33:01;101127.91;;;18.81;100.00
9249;BME280;4660;41.768;26.198;2022-09-09T02:35:30;101130.44;;;18.83;100.00
9249;BME280;4660;41.768;26.198;2022-09-09T02:38:02;101127.41;;;18.78;100.00
9249;BME280;4660;41.768;26.198;2022-09-09T02:40:29;101128.19;;;18.63;100.00
9249;BME280;4660;41.768;26.198;2022-09-09T02:42:55;101118.88;;;18.66;100.00
9249;BME280;4660;41.768;26.198;2022-09-09T02:45:25;101131.78;;;18.64;100.00
9249;BME280;4660;41.768;26.198;2022-09-09T02:48:12;101132.31;;;18.67;100.00
9249;BME280;4660;41.768;26.198;2022-09-09T02:50:54;101123.09;;;18.68;100.00
9249;BME280;4660;41.768;26.198;2022-09-09T02:53:39;101101.59;;;18.74;100.00
9249;BME280;4660;41.768;26.198;2022-09-09T02:56:14;101114.78;;;18.62;100.00
9249;BME280;4660;41.768;26.198;2022-09-09T02:58:40;101117.09;;;18.73;100.00
9249;BME280;4660;41.768;26.198;2022-09-09T03:01:07;101117.19;;;18.57;100.00
9249;BME280;4660;41.768;26.198;2022-09-09T03:03:34;101121.97;;;18.55;100.00
9249;BME280;4660;41.768;26.198;2022-09-09T03:06:00;101111.16;;;18.47;100.00
9249;BME280;4660;41.768;26.198;2022-09-09T03:08:25;101115.22;;;18.51;100.00
9249;BME280;4660;41.768;26.198;2022-09-09T03:10:54;101092.09;;;18.47;100.00
9249;BME280;4660;41.768;26.198;2022-09-09T03:13:20;101110.13;;;18.48;100.00
9249;BME280;4660;41.768;26.198;2022-09-09T03:15:47;101101.91;;;18.33;100.00
9249;BME280;4660;41.768;26.198;2022-09-09T03:18:14;101113.66;;;18.33;100.00
9249;BME280;4660;41.768;26.198;2022-09-09T03:20:39;101111.09;;;18.55;100.00
9249;BME280;4660;41.768;26.198;2022-09-09T03:23:07;101106.84;;;18.52;100.00
9249;BME280;4660;41.768;26.198;2022-09-09T03:25:32;101106.50;;;18.32;100.00
9249;BME280;4660;41.768;26.198;2022-09-09T03:27:58;101102.50;;;18.20;100.00
9249;BME280;4660;41.768;26.198;2022-09-09T03:30:26;101110.41;;;18.15;100.00
9249;BME280;4660;41.768;26.198;2022-09-09T03:32:52;101106.72;;;18.00;100.00
9249;BME280;4660;41.768;26.198;2022-09-09T03:35:18;101104.84;;;17.77;100.00
9249;BME280;4660;41.768;26.198;2022-09-09T03:37:44;101078.66;;;17.68;100.00
9249;BME280;4660;41.768;26.198;2022-09-09T03:40:10;101095.00;;;17.68;100.00
9249;BME280;4660;41.768;26.198;2022-09-09T03:42:37;101085.72;;;17.54;100.00
9249;BME280;4660;41.768;26.198;2022-09-09T03:45:07;101083.75;;;17.79;100.00
9249;BME280;4660;41.768;26.198;2022-09-09T03:47:34;101093.78;;;17.79;100.00
9249;BME280;4660;41.768;26.198;2022-09-09T03:50:00;101091.16;;;17.85;100.00
9249;BME280;4660;41.768;26.198;2022-09-09T03:52:26;101054.72;;;17.72;100.00
9249;BME280;4660;41.768;26.198;2022-09-09T03:54:52;101097.19;;;18.04;100.00
9249;BME280;4660;41.768;26.198;2022-09-09T03:57:18;101079.94;;;17.88;100.00
9249;BME280;4660;41.768;26.198;2022-09-09T03:59:44;101095.91;;;17.92;100.00
9249;BME280;4660;41.768;26.198;2022-09-09T04:02:10;101094.06;;;17.84;100.00
9249;BME280;4660;41.768;26.198;2022-09-09T04:04:35;101080.34;;;17.77;100.00
9249;BME280;4660;41.768;26.198;2022-09-09T04:07:01;101095.38;;;17.65;100.00
9249;BME280;4660;41.768;26.198;2022-09-09T04:09:26;101069.94;;;17.42;100.00
9249;BME280;4660;41.768;26.198;2022-09-09T04:11:52;101071.78;;;17.49;100.00
9249;BME280;4660;41.768;26.198;2022-09-09T04:14:19;101081.84;;;17.41;100.00
9249;BME280;4660;41.768;26.198;2022-09-09T04:16:44;101086.13;;;17.35;100.00
9249;BME280;4660;41.768;26.198;2022-09-09T04:19:12;101088.06;;;17.18;100.00
9249;BME280;4660;41.768;26.198;2022-09-09T04:21:42;101095.56;;;17.16;100.00
9249;BME280;4660;41.768;26.198;2022-09-09T04:24:08;101093.16;;;17.29;100.00
9249;BME280;4660;41.768;26.198;2022-09-09T04:26:35;101090.78;;;17.18;100.00
9249;BME280;4660;41.768;26.198;2022-09-09T04:29:03;101084.50;;;17.18;100.00
9249;BME280;4660;41.768;26.198;2022-09-09T04:31:29;101083.31;;;17.20;100.00
9249;BME280;4660;41.768;26.198;2022-09-09T04:33:54;101072.28;;;17.14;100.00
9249;BME280;4660;41.768;26.198;2022-09-09T04:36:20;101098.56;;;17.38;100.00
9249;BME280;4660;41.768;26.198;2022-09-09T04:38:46;101113.09;;;17.53;100.00
9249;BME280;4660;41.768;26.198;2022-09-09T04:41:13;101113.69;;;17.71;100.00
9249;BME280;4660;41.768;26.198;2022-09-09T04:43:39;101117.72;;;17.83;100.00
9249;BME280;4660;41.768;26.198;2022-09-09T04:46:05;101126.94;;;17.82;100.00
9249;BME280;4660;41.768;26.198;2022-09-09T04:48:31;101114.34;;;17.81;100.00
9249;BME280;4660;41.768;26.198;2022-09-09T04:50:58;101118.44;;;17.77;100.00
9249;BME280;4660;41.768;26.198;2022-09-09T04:53:24;101124.59;;;17.71;100.00
9249;BME280;4660;41.768;26.198;2022-09-09T04:55:52;101124.25;;;17.74;100.00
9249;BME280;4660;41.768;26.198;2022-09-09T04:58:17;101125.72;;;17.85;100.00
9249;BME280;4660;41.768;26.198;2022-09-09T05:00:43;101137.75;;;17.91;100.00
9249;BME280;4660;41.768;26.198;2022-09-09T05:03:09;101126.88;;;17.91;100.00
9249;BME280;4660;41.768;26.198;2022-09-09T05:05:35;101137.94;;;17.89;100.00
9249;BME280;4660;41.768;26.198;2022-09-09T05:08:04;101136.16;;;18.04;100.00
9249;BME280;4660;41.768;26.198;2022-09-09T05:10:31;101145.09;;;18.13;100.00
9249;BME280;4660;41.768;26.198;2022-09-09T05:12:57;101140.94;;;18.25;100.00
9249;BME280;4660;41.768;26.198;2022-09-09T05:15:23;101154.94;;;18.45;100.00
9249;BME280;4660;41.768;26.198;2022-09-09T05:17:48;101157.03;;;18.66;100.00
9249;BME280;4660;41.768;26.198;2022-09-09T05:20:14;101154.56;;;18.71;100.00
9249;BME280;4660;41.768;26.198;2022-09-09T05:22:40;101154.34;;;18.81;100.00
9249;BME280;4660;41.768;26.198;2022-09-09T05:25:06;101142.03;;;19.00;100.00
9249;BME280;4660;41.768;26.198;2022-09-09T05:27:33;101136.56;;;19.00;100.00
9249;BME280;4660;41.768;26.198;2022-09-09T05:29:59;101147.69;;;19.13;100.00
9249;BME280;4660;41.768;26.198;2022-09-09T05:32:24;101117.34;;;19.16;100.00
9249;BME280;4660;41.768;26.198;2022-09-09T05:34:51;101126.56;;;19.30;100.00
9249;BME280;4660;41.768;26.198;2022-09-09T05:37:18;101133.69;;;19.45;100.00
9249;BME280;4660;41.768;26.198;2022-09-09T05:39:43;101147.03;;;19.55;100.00
9249;BME280;4660;41.768;26.198;2022-09-09T05:42:09;101149.25;;;19.60;100.00
9249;BME280;4660;41.768;26.198;2022-09-09T05:44:34;101116.09;;;19.63;100.00
9249;BME280;4660;41.768;26.198;2022-09-09T05:47:00;101152.44;;;19.99;100.00
9249;BME280;4660;41.768;26.198;2022-09-09T05:49:25;101159.69;;;20.07;100.00
9249;BME280;4660;41.768;26.198;2022-09-09T05:51:51;101124.88;;;19.94;100.00
9249;BME280;4660;41.768;26.198;2022-09-09T05:54:17;101162.25;;;20.30;100.00
9249;BME280;4660;41.768;26.198;2022-09-09T05:56:43;101139.66;;;20.43;100.00
9249;BME280;4660;41.768;26.198;2022-09-09T05:59:08;101144.28;;;20.42;100.00
9249;BME280;4660;41.768;26.198;2022-09-09T06:01:36;101134.19;;;20.43;100.00
9249;BME280;4660;41.768;26.198;2022-09-09T06:04:06;101131.66;;;20.41;100.00
9249;BME280;4660;41.768;26.198;2022-09-09T06:06:34;101140.78;;;20.70;100.00
9249;BME280;4660;41.768;26.198;2022-09-09T06:09:03;101132.00;;;20.74;100.00
9249;BME280;4660;41.768;26.198;2022-09-09T06:11:32;101149.22;;;20.96;100.00
9249;BME280;4660;41.768;26.198;2022-09-09T06:13:59;101137.88;;;20.99;100.00
9249;BME280;4660;41.768;26.198;2022-09-09T06:16:27;101150.03;;;21.25;100.00
9249;BME280;4660;41.768;26.198;2022-09-09T06:18:56;101145.75;;;21.37;100.00
9249;BME280;4660;41.768;26.198;2022-09-09T06:21:25;101148.88;;;21.34;100.00
9249;BME280;4660;41.768;26.198;2022-09-09T06:23:51;101137.34;;;21.45;100.00
9249;BME280;4660;41.768;26.198;2022-09-09T06:26:25;101155.94;;;21.56;100.00
9249;BME280;4660;41.768;26.198;2022-09-09T06:28:53;101150.53;;;21.69;100.00
9249;BME280;4660;41.768;26.198;2022-09-09T06:31:24;101151.16;;;21.71;100.00
9249;BME280;4660;41.768;26.198;2022-09-09T06:33:52;101160.53;;;21.90;100.00
9249;BME280;4660;41.768;26.198;2022-09-09T06:36:24;101157.19;;;21.95;100.00
9249;BME280;4660;41.768;26.198;2022-09-09T06:38:50;101159.72;;;22.03;100.00
9249;BME280;4660;41.768;26.198;2022-09-09T06:41:17;101162.13;;;22.26;100.00
9249;BME280;4660;41.768;26.198;2022-09-09T06:43:44;101152.25;;;22.32;100.00
9249;BME280;4660;41.768;26.198;2022-09-09T06:46:13;101158.59;;;22.39;100.00
9249;BME280;4660;41.768;26.198;2022-09-09T06:48:39;101152.25;;;22.32;100.00
9249;BME280;4660;41.768;26.198;2022-09-09T06:51:10;101159.66;;;22.44;100.00
9249;BME280;4660;41.768;26.198;2022-09-09T06:53:38;101161.56;;;22.64;100.00
9249;BME280;4660;41.768;26.198;2022-09-09T06:58:45;101148.06;;;22.75;100.00
9249;BME280;4660;41.768;26.198;2022-09-09T07:01:16;101154.00;;;22.92;100.00
9249;BME280;4660;41.768;26.198;2022-09-09T07:03:45;101155.66;;;23.06;100.00
9249;BME280;4660;41.768;26.198;2022-09-09T07:06:15;101135.44;;;22.88;100.00
9249;BME280;4660;41.768;26.198;2022-09-09T07:08:43;101152.06;;;23.13;100.00
9249;BME280;4660;41.768;26.198;2022-09-09T07:11:09;101147.84;;;23.23;100.00
9249;BME280;4660;41.768;26.198;2022-09-09T07:13:35;101141.91;;;23.40;100.00
9249;BME280;4660;41.768;26.198;2022-09-09T07:16:11;101153.25;;;23.56;100.00
9249;BME280;4660;41.768;26.198;2022-09-09T07:18:39;101158.94;;;23.68;100.00
9249;BME280;4660;41.768;26.198;2022-09-09T07:21:05;101109.13;;;23.51;100.00
9249;BME280;4660;41.768;26.198;2022-09-09T07:23:32;101151.59;;;24.00;100.00
9249;BME280;4660;41.768;26.198;2022-09-09T07:25:58;101161.63;;;24.26;100.00
9249;BME280;4660;41.768;26.198;2022-09-09T07:28:25;101155.78;;;24.16;100.00
9249;BME280;4660;41.768;26.198;2022-09-09T07:30:59;101156.09;;;24.39;100.00
9249;BME280;4660;41.768;26.198;2022-09-09T07:33:26;101154.59;;;24.43;100.00
9249;BME280;4660;41.768;26.198;2022-09-09T07:35:52;101143.41;;;24.38;100.00
9249;BME280;4660;41.768;26.198;2022-09-09T07:38:19;101150.88;;;24.56;99.55
9249;BME280;4660;41.768;26.198;2022-09-09T07:40:46;101150.81;;;24.63;99.23
9249;BME280;4660;41.768;26.198;2022-09-09T07:43:11;101141.69;;;24.69;99.18
9249;BME280;4660;41.768;26.198;2022-09-09T07:45:37;101143.06;;;24.78;98.00
9249;BME280;4660;41.768;26.198;2022-09-09T07:48:03;101138.75;;;24.89;98.18
9249;BME280;4660;41.768;26.198;2022-09-09T07:50:31;101128.28;;;24.79;97.74
9249;BME280;4660;41.768;26.198;2022-09-09T07:52:57;101149.47;;;25.04;96.85
9249;BME280;4660;41.768;26.198;2022-09-09T07:55:24;101139.00;;;25.12;93.65
9249;BME280;4660;41.768;26.198;2022-09-09T07:57:52;101131.91;;;25.23;92.32
9249;BME280;4660;41.768;26.198;2022-09-09T08:00:18;101137.47;;;25.35;93.19
9249;BME280;4660;41.768;26.198;2022-09-09T08:02:44;101139.88;;;25.31;92.59
9249;BME280;4660;41.768;26.198;2022-09-09T08:05:12;101125.50;;;25.29;91.74
9249;BME280;4660;41.768;26.198;2022-09-09T08:07:39;101134.59;;;25.30;90.56
9249;BME280;4660;41.768;26.198;2022-09-09T08:10:05;101098.06;;;25.34;88.11
9249;BME280;4660;41.768;26.198;2022-09-09T08:12:31;101111.16;;;25.39;88.35
9249;BME280;4660;41.768;26.198;2022-09-09T08:14:57;101111.47;;;25.49;88.97
9249;BME280;4660;41.768;26.198;2022-09-09T08:17:23;101109.53;;;25.68;85.84
9249;BME280;4660;41.768;26.198;2022-09-09T08:19:48;101113.59;;;25.84;84.68
9249;BME280;4660;41.768;26.198;2022-09-09T08:22:14;101095.44;;;25.94;82.38
9249;BME280;4660;41.768;26.198;2022-09-09T08:24:40;101096.78;;;26.03;80.48
9249;BME280;4660;41.768;26.198;2022-09-09T08:27:06;101098.31;;;25.99;81.04
9249;BME280;4660;41.768;26.198;2022-09-09T08:29:31;101108.56;;;26.11;80.05
9249;BME280;4660;41.768;26.198;2022-09-09T08:31:58;101102.50;;;26.32;76.54
9249;BME280;4660;41.768;26.198;2022-09-09T08:34:25;101112.22;;;26.34;78.09
9249;BME280;4660;41.768;26.198;2022-09-09T08:36:53;101117.69;;;26.41;76.22
9249;BME280;4660;41.768;26.198;2022-09-09T08:39:21;101099.06;;;26.37;72.40
9249;BME280;4660;41.768;26.198;2022-09-09T08:52:39;101084.84;;;26.75;68.81
9249;BME280;4660;41.768;26.198;2022-09-09T08:57:48;101080.06;;;26.94;68.97
9249;BME280;4660;41.768;26.198;2022-09-09T09:00:15;101085.81;;;27.04;70.54
9249;BME280;4660;41.768;26.198;2022-09-09T09:02:46;101091.25;;;27.10;70.33
9249;BME280;4660;41.768;26.198;2022-09-09T09:05:57;101070.22;;;27.09;69.69
9249;BME280;4660;41.768;26.198;2022-09-09T09:11:08;101072.09;;;27.44;69.59
9249;BME280;4660;41.768;26.198;2022-09-09T09:16:27;101072.84;;;27.80;67.26
9249;BME280;4660;41.768;26.198;2022-09-09T09:19:00;101059.06;;;27.68;67.97
9249;BME280;4660;41.768;26.198;2022-09-09T09:21:43;101064.19;;;27.76;68.99
9249;BME280;4660;41.768;26.198;2022-09-09T09:24:21;101053.47;;;27.80;66.73
9249;BME280;4660;41.768;26.198;2022-09-09T09:26:48;101051.00;;;27.95;64.67
9249;BME280;4660;41.768;26.198;2022-09-09T09:29:18;101047.97;;;27.96;64.25
9249;BME280;4660;41.768;26.198;2022-09-09T09:31:52;101047.47;;;28.00;64.46
9249;BME280;4660;41.768;26.198;2022-09-09T09:34:19;101043.91;;;28.16;62.60
9249;BME280;4660;41.768;26.198;2022-09-09T09:36:56;101060.91;;;28.36;61.82
9249;BME280;4660;41.768;26.198;2022-09-09T09:39:28;101055.50;;;28.63;60.01
9249;BME280;4660;41.768;26.198;2022-09-09T09:41:54;101051.38;;;28.83;56.68
9249;BME280;4660;41.768;26.198;2022-09-09T09:44:25;101052.88;;;28.90;55.10
9249;BME280;4660;41.768;26.198;2022-09-09T09:46:52;101041.03;;;28.78;55.35
9249;BME280;4660;41.768;26.198;2022-09-09T09:49:18;101039.78;;;28.86;55.04
9249;BME280;4660;41.768;26.198;2022-09-09T09:51:43;101015.59;;;28.59;55.56
9249;BME280;4660;41.768;26.198;2022-09-09T09:56:39;101018.22;;;28.71;55.56
9249;BME280;4660;41.768;26.198;2022-09-09T09:59:11;101021.44;;;28.79;53.68
9249;BME280;4660;41.768;26.198;2022-09-09T10:01:44;101023.16;;;28.86;54.20
9249;BME280;4660;41.768;26.198;2022-09-09T10:04:19;101006.50;;;28.64;54.13
9249;BME280;4660;41.768;26.198;2022-09-09T10:06:46;101019.56;;;29.02;53.50
9249;BME280;4660;41.768;26.198;2022-09-09T10:11:49;101022.19;;;29.36;50.00
9249;BME280;4660;41.768;26.198;2022-09-09T10:14:21;101019.66;;;29.51;49.26
9249;BME280;4660;41.768;26.198;2022-09-09T10:19:35;101013.16;;;29.94;47.68
9249;BME280;4660;41.768;26.198;2022-09-09T10:22:26;101013.63;;;30.13;45.54
9249;BME280;4660;41.768;26.198;2022-09-09T10:28:00;101013.06;;;30.11;43.37
9249;BME280;4660;41.768;26.198;2022-09-09T10:33:47;101011.19;;;30.22;42.24
9249;BME280;4660;41.768;26.198;2022-09-09T10:36:25;101010.19;;;30.01;42.56
9249;BME280;4660;41.768;26.198;2022-09-09T10:39:06;100991.13;;;29.82;43.60
9249;BME280;4660;41.768;26.198;2022-09-09T10:42:05;100996.63;;;29.77;43.03
9249;BME280;4660;41.768;26.198;2022-09-09T10:50:24;100988.16;;;30.21;40.72
9249;BME280;4660;41.768;26.198;2022-09-09T10:53:18;100978.41;;;30.51;39.52
9249;BME280;4660;41.768;26.198;2022-09-09T10:55:53;100979.97;;;30.74;38.62
9249;BME280;4660;41.768;26.198;2022-09-09T10:58:42;100978.41;;;30.98;38.00
9249;BME280;4660;41.768;26.198;2022-09-09T11:01:18;100979.28;;;31.04;37.23
9249;BME280;4660;41.768;26.198;2022-09-09T11:03:51;100954.81;;;31.01;37.29
9249;BME280;4660;41.768;26.198;2022-09-09T11:06:20;100972.66;;;31.15;37.05
9249;BME280;4660;41.768;26.198;2022-09-09T11:08:48;100959.59;;;31.15;36.98
9249;BME280;4660;41.768;26.198;2022-09-09T11:11:21;100946.19;;;31.07;37.64
9249;BME280;4660;41.768;26.198;2022-09-09T11:16:52;100952.69;;;31.28;36.40
9249;BME280;4660;41.768;26.198;2022-09-09T11:19:34;100954.38;;;31.24;36.24
9249;BME280;4660;41.768;26.198;2022-09-09T11:24:44;100953.63;;;30.91;36.77
9249;BME280;4660;41.768;26.198;2022-09-09T11:35:42;100936.97;;;30.86;36.22
9249;BME280;4660;41.768;26.198;2022-09-09T11:38:46;100955.47;;;31.23;35.53
9249;BME280;4660;41.768;26.198;2022-09-09T11:41:14;100940.22;;;31.41;35.00
9249;BME280;4660;41.768;26.198;2022-09-09T11:46:13;100933.00;;;31.50;33.89
9249;BME280;4660;41.768;26.198;2022-09-09T11:48:42;100929.97;;;31.67;34.05
9249;BME280;4660;41.768;26.198;2022-09-09T11:51:26;100920.84;;;31.87;32.72
9249;BME280;4660;41.768;26.198;2022-09-09T11:54:25;100923.31;;;31.93;32.84
9249;BME280;4660;41.768;26.198;2022-09-09T11:56:48;100918.63;;;31.89;33.30
9249;BME280;4660;41.768;26.198;2022-09-09T11:59:23;100926.09;;;31.93;33.15
9249;BME280;4660;41.768;26.198;2022-09-09T12:02:00;100918.59;;;32.04;32.90
9249;BME280;4660;41.768;26.198;2022-09-09T12:04:49;100913.03;;;32.04;32.32
9249;BME280;4660;41.768;26.198;2022-09-09T12:07:31;100887.69;;;32.00;32.72
9249;BME280;4660;41.768;26.198;2022-09-09T12:10:05;100902.41;;;32.31;32.21
9249;BME280;4660;41.768;26.198;2022-09-09T12:12:44;100897.13;;;32.40;32.25
9249;BME280;4660;41.768;26.198;2022-09-09T12:20:27;100892.69;;;32.24;31.77
9249;BME280;4660;41.768;26.198;2022-09-09T12:32:17;100879.91;;;32.02;31.50
9249;BME280;4660;41.768;26.198;2022-09-09T12:37:15;100879.84;;;32.43;31.27
9249;BME280;4660;41.768;26.198;2022-09-09T12:39:58;100869.22;;;32.50;31.77
9249;BME280;4660;41.768;26.198;2022-09-09T12:42:25;100866.44;;;32.61;31.09
9249;BME280;4660;41.768;26.198;2022-09-09T12:45:00;100858.59;;;32.68;31.08
9249;BME280;4660;41.768;26.198;2022-09-09T12:47:48;100858.56;;;32.73;31.13
9249;BME280;4660;41.768;26.198;2022-09-09T12:50:17;100847.94;;;32.80;30.91
9249;BME280;4660;41.768;26.198;2022-09-09T12:52:44;100844.00;;;32.96;30.65
9249;BME280;4660;41.768;26.198;2022-09-09T12:55:38;100838.34;;;33.06;30.27
9249;BME280;4660;41.768;26.198;2022-09-09T12:58:03;100837.78;;;33.09;29.92
9249;BME280;4660;41.768;26.198;2022-09-09T13:00:32;100839.44;;;33.10;30.02
9249;BME280;4660;41.768;26.198;2022-09-09T13:03:00;100827.63;;;33.24;29.09
9249;BME280;4660;41.768;26.198;2022-09-09T13:05:28;100830.53;;;33.08;29.06
9249;BME280;4660;41.768;26.198;2022-09-09T13:08:10;100827.13;;;33.17;29.63
9249;BME280;4660;41.768;26.198;2022-09-09T13:10:41;100818.72;;;33.22;29.07
9249;BME280;4660;41.768;26.198;2022-09-09T13:13:21;100819.19;;;33.39;28.86
9249;BME280;4660;41.768;26.198;2022-09-09T13:15:55;100817.78;;;33.36;28.92
9249;BME280;4660;41.768;26.198;2022-09-09T13:18:23;100807.72;;;33.40;29.00
9249;BME280;4660;41.768;26.198;2022-09-09T13:20:50;100802.78;;;33.27;29.36
9249;BME280;4660;41.768;26.198;2022-09-09T13:23:19;100801.41;;;33.25;29.63
9249;BME280;4660;41.768;26.198;2022-09-09T13:25:56;100809.59;;;33.50;28.77
9249;BME280;4660;41.768;26.198;2022-09-09T13:28:27;100805.44;;;33.48;28.47
9249;BME280;4660;41.768;26.198;2022-09-09T13:31:00;100803.66;;;33.57;28.24
9249;BME280;4660;41.768;26.198;2022-09-09T13:33:33;100794.44;;;33.61;28.32
9249;BME280;4660;41.768;26.198;2022-09-09T13:38:29;100800.69;;;33.77;28.33
9249;BME280;4660;41.768;26.198;2022-09-09T13:43:37;100777.78;;;33.51;28.48
9249;BME280;4660;41.768;26.198;2022-09-09T13:46:22;100793.72;;;33.51;28.53
9249;BME280;4660;41.768;26.198;2022-09-09T13:51:46;100779.88;;;32.96;28.59
9249;BME280;4660;41.768;26.198;2022-09-09T13:54:14;100785.13;;;33.03;29.00
9249;BME280;4660;41.768;26.198;2022-09-09T13:56:41;100774.16;;;33.17;28.81
9249;BME280;4660;41.768;26.198;2022-09-09T13:59:25;100775.09;;;33.02;28.92
9249;BME280;4660;41.768;26.198;2022-09-09T14:01:51;100777.00;;;33.06;28.92
9249;BME280;4660;41.768;26.198;2022-09-09T14:04:18;100779.09;;;33.25;28.48
9249;BME280;4660;41.768;26.198;2022-09-09T14:06:46;100778.47;;;33.38;28.43
9249;BME280;4660;41.768;26.198;2022-09-09T14:09:14;100774.56;;;33.39;28.33
9249;BME280;4660;41.768;26.198;2022-09-09T14:11:40;100772.94;;;33.28;28.08
9249;BME280;4660;41.768;26.198;2022-09-09T14:14:06;100772.28;;;33.41;28.08
9249;BME280;4660;41.768;26.198;2022-09-09T14:16:31;100777.88;;;33.41;27.68
9249;BME280;4660;41.768;26.198;2022-09-09T14:18:58;100778.13;;;33.45;27.59
9249;BME280;4660;41.768;26.198;2022-09-09T14:21:25;100774.75;;;33.48;27.92
9249;BME280;4660;41.768;26.198;2022-09-09T14:23:52;100780.03;;;33.49;27.00
9249;BME280;4660;41.768;26.198;2022-09-09T14:26:23;100773.41;;;33.40;27.35
9249;BME280;4660;41.768;26.198;2022-09-09T14:28:49;100765.59;;;33.42;27.10
9249;BME280;4660;41.768;26.198;2022-09-09T14:31:15;100777.94;;;33.31;26.91
9249;BME280;4660;41.768;26.198;2022-09-09T14:33:43;100752.28;;;33.29;27.05
9249;BME280;4660;41.768;26.198;2022-09-09T14:36:09;100759.38;;;33.50;27.28
9249;BME280;4660;41.768;26.198;2022-09-09T14:38:37;100765.59;;;33.42;27.08
9249;BME280;4660;41.768;26.198;2022-09-09T14:41:08;100770.59;;;33.45;26.96
9249;BME280;4660;41.768;26.198;2022-09-09T14:43:34;100758.88;;;33.43;26.81
9249;BME280;4660;41.768;26.198;2022-09-09T14:46:11;100760.59;;;33.39;26.96
9249;BME280;4660;41.768;26.198;2022-09-09T14:48:37;100751.72;;;33.32;26.94
9249;BME280;4660;41.768;26.198;2022-09-09T14:53:32;100743.97;;;33.24;27.11
9249;BME280;4660;41.768;26.198;2022-09-09T14:58:31;100741.91;;;33.39;27.37
9249;BME280;4660;41.768;26.198;2022-09-09T15:03:30;100736.66;;;33.28;27.15
9249;BME280;4660;41.768;26.198;2022-09-09T15:05:55;100716.03;;;33.29;27.41
9249;BME280;4660;41.768;26.198;2022-09-09T15:08:24;100741.94;;;33.63;27.01
9249;BME280;4660;41.768;26.198;2022-09-09T15:10:50;100738.00;;;33.64;27.09
9249;BME280;4660;41.768;26.198;2022-09-09T15:13:15;100742.19;;;33.67;27.24
9249;BME280;4660;41.768;26.198;2022-09-09T15:15:44;100738.06;;;33.88;27.48